Kolmaarden Stroemsfors, Sweden

3:04 PM CEST on July 31, 2014 (GMT +0200)
Krokek (I61800KO2) Elev 161 ft | 58.67 °N, 16.36 °E | Change Station

Current weather conditions updated 2 seconds ago

Clear
Clear
82.6 °F
Feels Like 81 °F
N
2.9
Wind Variable Wind from SW
Gusts 8.3 mph

Today is forecast to be Much Cooler than yesterday.

Today
High -- | Low -- °F
--% Chance of Precip.
Yesterday
High -- | Low -- °F
Precip. -- in
4:41 AM 9:19 PM
Waxing Crescent, 18% visible
Pressure 29.71 in
Visibility -9999.0 miles
Clouds
Heat Index 81 °F
Dew Point 51 °F
Humidity 34%
Rainfall 0.02 in
Snow Depth Not available.
UV Not available.
Pollen Not available.
Air Quality Not available.
Flu Activity Not available.
METAR ESSP 311250Z 26015KT CAVOK 25/11 Q1006

More Conditions Fewer Conditions

Pressure 29.71 in
Visibility -9999.0 miles
Clouds
Heat Index 81 °F
Dew Point 51 °F
Humidity 34%
Rainfall 0.02 in
Snow Depth Not available.
UV Not available.
Pollen Not available.
Air Quality Not available.
Flu Activity Not available.
METAR ESSP 311250Z 26015KT CAVOK 25/11 Q1006

More Conditions Fewer Conditions

10-Day Weather Forecast

Almanac

Astronomy

Jul. 31, 2014 Rise Set
Actual Time 4:41 AM CEST 9:19 PM CEST
Civil Twilight 3:44 AM CEST 10:15 PM CEST
Nautical Twilight 2:01 AM CEST 11:54 PM CEST
Astronomical Twilight Sun does not rise Sun does not rise
Moon 10:04 AM CEST 10:05 PM CEST
Length of Visible Light 18h 30m
Length of Day
16h 38m
Tomorrow will be 4m 26s shorter.
Waxing Crescent, 18% of the Moon is Illuminated
Today
Waxing Crescent
Aug 3
First Quarter
Aug 10
Full
Aug 17
Last Quarter
Aug 25
New

Yesterday's Extremes

Country Highs Country Lows

Community

WunderPhotos

Upload Photos

1,739,313 photos uploaded!

WunderBlogs® & News

Nearby

Snow Depth

Not available.

Earthquake Activity

City Distance Mag. Time & Date
No recent earthquake activity has been reported nearby.
Minimum magnitude displayed is 2.5.

Coastal Water Temperatures

Place Temperature
No Stations Reporting

Nearby Weather Stations

Station Location Temp. Heat Index Dew Point Humidity Wind Precip. Elev Updated Type
Krokek, Kolmården 82.6 °F 81 °F 51 °F 34% SW  at  2.9 mph 0.00 in / hr 161 ft 3:04 PM CEST Rapid Fire
kolmarden, Östergötlands Län 79.0 °F 79 °F 53 °F 40% SW  at  4.0 mph 0.00 in / hr 121 ft 2:58 PM CEST Normal
Aby, Ostergotland, �sterg�tlands L�n 79.3 °F 80 °F 59 °F 50% WSW  at  2.0 mph 0.00 in / hr 157 ft 3:04 PM CEST Normal
Marby, Norrkoeping 78.3 °F 79 °F 55 °F 45% North  at  7.0 mph - / hr 62 ft 3:00 PM CEST Normal
Kaffebacken, Norrkoeping 79.3 °F 79 °F 52 °F 39% NE  at  5.0 mph 0.00 in / hr 144 ft 2:57 PM CEST Normal
FinspÃ¥ng, FinspÃ¥ng 77.4 °F 79 °F 55 °F 46% WSW  at  8.1 mph 0.00 in / hr 157 ft 3:04 PM CEST Rapid Fire
Katrineholm, Valla 79.2 °F 79 °F 46 °F 34% North  at  0.0 mph 0.00 in / hr 120 ft 2:53 PM CEST Normal

Show More Stations Show Fewer Stations